Time;durP1;ratioP1;P1;durP2;ratioP2;P2;SDS_P1;SDS_P2;PMS_P1;PMS_P2;Temp;Humidity;BMP_temperature;BMP_pressure;BME280_temperature;BME280_humidity;BME280_pressure;Samples;Min_cycle;Max_cycle;Signal;HPM_P1;HPM_P2
2022/08/28 06:22:57;;;;;;;;;7.50;5.50;;;;;19.41;53.88;101570.53;2947271;22;46173;31
2022/08/28 06:24:09;;;;;;;;;10.00;7.00;;;;;19.41;54.02;101562.53;2379524;28;45491;-81
2022/08/28 06:25:20;;;;;;;;;6.75;6.75;;;;;19.44;53.90;101562.34;2386342;28;45274;-82
2022/08/28 06:26:30;;;;;;;;;8.00;5.25;;;;;19.43;53.88;101565.97;2388721;28;45470;-82
2022/08/28 06:27:40;;;;;;;;;6.75;5.75;;;;;19.45;54.11;101559.59;2385042;28;45476;-82
2022/08/28 06:28:52;;;;;;;;;10.25;8.00;;;;;19.47;54.12;101570.16;2383955;28;45227;-82
2022/08/28 06:30:03;;;;;;;;;8.50;6.25;;;;;19.47;54.07;101561.28;2385232;28;45772;-82
2022/08/28 06:31:13;;;;;;;;;7.25;7.25;;;;;19.48;53.65;101566.56;2385533;28;44704;-82
2022/08/28 06:32:24;;;;;;;;;8.00;8.00;;;;;19.50;54.19;101566.47;2386301;28;46605;-83
2022/08/28 06:33:34;;;;;;;;;6.25;4.75;;;;;19.52;54.55;101570.75;2383915;28;45175;-83
2022/08/28 06:34:44;;;;;;;;;8.00;8.00;;;;;19.56;54.03;101566.94;2383600;28;46349;-82
2022/08/28 06:35:56;;;;;;;;;9.00;8.00;;;;;19.60;54.13;101572.13;2383643;28;45446;-83
2022/08/28 06:37:07;;;;;;;;;7.50;7.00;;;;;19.62;53.88;101571.06;2383783;28;46558;-83
2022/08/28 06:38:19;;;;;;;;;8.25;6.25;;;;;19.64;53.60;101565.66;2383745;28;45247;-82
2022/08/28 06:39:30;;;;;;;;;6.75;6.00;;;;;19.65;53.63;101567.38;2383727;28;45207;-82
2022/08/28 06:40:42;;;;;;;;;8.50;7.00;;;;;19.67;53.81;101571.66;2384712;28;45167;-83
2022/08/28 06:41:53;;;;;;;;;6.00;6.00;;;;;19.66;54.05;101572.59;2393274;28;45440;-82
2022/08/28 06:43:03;;;;;;;;;10.00;8.00;;;;;19.67;54.01;101568.13;2391783;28;45433;-82
2022/08/28 06:44:19;;;;;;;;;10.50;8.50;;;;;19.70;54.08;101572.44;2384722;28;46272;-82
2022/08/28 06:45:30;;;;;;;;;8.50;7.00;;;;;19.70;53.84;101572.44;2379654;28;44796;-83
2022/08/28 06:46:40;;;;;;;;;7.25;6.25;;;;;19.67;53.96;101565.47;2393109;28;47891;-83
2022/08/28 06:47:51;;;;;;;;;9.00;7.00;;;;;19.65;53.98;101568.25;2390001;28;45280;-83
2022/08/28 06:49:04;;;;;;;;;8.25;7.00;;;;;19.67;54.05;101574.34;2382927;28;46380;-83
2022/08/28 06:50:15;;;;;;;;;9.00;7.25;;;;;19.69;53.68;101571.56;2389911;28;45338;-83
2022/08/28 06:51:25;;;;;;;;;10.00;6.75;;;;;19.71;53.62;101579.47;2391272;28;45971;-84
2022/08/28 06:52:36;;;;;;;;;5.75;4.00;;;;;19.71;54.13;101577.66;2392604;28;44700;-85
2022/08/28 06:53:47;;;;;;;;;8.75;7.75;;;;;19.70;54.01;101575.09;2383115;28;46069;-85
2022/08/28 06:54:57;;;;;;;;;7.25;6.50;;;;;19.70;53.91;101567.97;2373739;28;45591;-82
2022/08/28 06:56:10;;;;;;;;;6.00;6.00;;;;;19.72;54.12;101571.41;2376429;28;46206;-83
2022/08/28 06:57:20;;;;;;;;;10.75;9.00;;;;;19.71;53.99;101577.66;2386411;28;44881;-82
2022/08/28 06:58:31;;;;;;;;;7.75;7.00;;;;;19.69;53.84;101571.56;2384880;28;45191;-82
2022/08/28 06:59:41;;;;;;;;;8.75;6.75;;;;;19.71;54.08;101575.00;2384395;28;44740;-82
2022/08/28 07:01:00;;;;;;;;;7.75;5.00;;;;;19.71;54.24;101575.00;2383739;28;45256;-82
2022/08/28 07:02:11;;;;;;;;;7.00;7.00;;;;;19.72;53.91;101571.41;2383012;28;45195;-83
2022/08/28 07:03:21;;;;;;;;;6.75;6.50;;;;;19.71;54.39;101574.13;2383013;28;45320;-83
2022/08/28 07:04:32;;;;;;;;;8.25;8.25;;;;;19.72;54.01;101576.72;2383270;28;45430;-84
2022/08/28 07:05:42;;;;;;;;;6.00;6.00;;;;;19.72;54.41;101573.19;2382909;28;46229;-86
2022/08/28 07:06:53;;;;;;;;;9.50;8.00;;;;;19.73;54.03;101573.09;2374759;28;45167;-85
2022/08/28 07:08:03;;;;;;;;;8.00;7.50;;;;;19.76;54.05;101575.59;2376899;28;45729;-82
2022/08/28 07:09:14;;;;;;;;;6.00;5.50;;;;;19.77;54.53;101569.31;2384285;28;45223;-82
2022/08/28 07:10:27;;;;;;;;;10.25;8.75;;;;;19.78;54.18;101573.69;2384085;28;46290;-82
2022/08/28 07:11:38;;;;;;;;;12.00;7.50;;;;;19.82;54.37;101577.03;2384468;28;45372;-83
2022/08/28 07:12:49;;;;;;;;;9.25;9.25;;;;;19.86;54.11;101577.72;2384451;28;45477;-83
2022/08/28 07:14:01;;;;;;;;;7.00;7.00;;;;;19.88;54.30;101576.66;2384600;28;44798;-83
2022/08/28 07:15:12;;;;;;;;;9.50;8.00;;;;;19.91;53.96;101570.28;2377393;28;48237;-82
2022/08/28 07:16:29;;;;;;;;;7.75;7.00;;;;;19.94;53.97;101575.44;2376495;28;46115;-83
2022/08/28 07:17:39;;;;;;;;;10.00;6.75;;;;;19.97;54.16;101577.09;2384472;28;45523;-82
2022/08/28 07:18:50;;;;;;;;;8.25;8.25;;;;;20.00;53.71;101583.06;2384349;28;45357;-83
2022/08/28 07:20:03;;;;;;;;;7.00;6.00;;;;;20.05;53.90;101571.28;2384510;28;45390;-82
2022/08/28 07:21:13;;;;;;;;;9.25;8.25;;;;;20.08;53.53;101579.94;2384618;28;45432;-84
2022/08/28 07:22:28;;;;;;;;;9.25;7.00;;;;;20.10;53.68;101585.22;2383949;28;45374;-86
2022/08/28 07:23:41;;;;;;;;;9.50;8.50;;;;;20.11;53.75;101579.81;2384026;28;45472;-84
2022/08/28 07:24:53;;;;;;;;;10.50;9.00;;;;;20.11;53.53;101578.94;2384467;28;45566;-84
2022/08/28 07:26:09;;;;;;;;;10.25;9.25;;;;;20.10;53.66;101574.53;2384121;28;45156;-84
2022/08/28 07:27:21;;;;;;;;;12.25;8.75;;;;;20.10;53.70;101582.53;2384204;28;46449;-83
2022/08/28 07:28:32;;;;;;;;;9.75;8.75;;;;;20.08;53.55;101579.09;2393243;28;45288;-85
2022/08/28 07:29:42;;;;;;;;;8.75;6.00;;;;;20.09;54.21;101578.16;2390387;28;46267;-84
2022/08/28 07:31:03;;;;;;;;;6.25;5.25;;;;;20.10;54.09;101579.88;2387549;28;45146;-84
2022/08/28 07:32:14;;;;;;;;;9.25;8.50;;;;;20.16;53.79;101582.19;2386221;28;45464;-83
2022/08/28 07:33:26;;;;;;;;;8.25;8.25;;;;;20.20;54.38;101586.38;2385452;28;44775;-83
2022/08/28 07:34:37;;;;;;;;;8.50;8.50;;;;;20.21;53.82;101589.91;2388888;28;46392;-84
2022/08/28 07:35:49;;;;;;;;;7.75;7.00;;;;;20.22;53.82;101579.13;2385337;28;44610;-83
2022/08/28 07:37:03;;;;;;;;;6.75;6.75;;;;;20.27;53.96;101575.34;2389411;28;46216;-84
2022/08/28 07:38:13;;;;;;;;;9.25;7.50;;;;;20.31;54.22;101582.19;2383755;28;45251;-83
2022/08/28 07:39:23;;;;;;;;;10.75;10.00;;;;;20.35;53.54;101579.25;2392412;28;45395;-84
2022/08/28 07:40:33;;;;;;;;;7.50;5.50;;;;;20.35;53.64;101576.59;2388187;28;45290;-84
2022/08/28 07:41:45;;;;;;;;;9.00;9.00;;;;;20.38;53.77;101583.53;2384190;28;48584;-85
2022/08/28 07:46:02;;;;;;;;;7.75;4.75;;;;;20.44;53.67;101585.84;2385814;28;45453;-84
2022/08/28 07:47:12;;;;;;;;;9.25;8.00;;;;;20.46;53.69;101585.75;2375085;28;47323;-83
2022/08/28 07:48:23;;;;;;;;;7.25;7.25;;;;;20.50;53.71;101586.41;2386978;28;45259;-85
2022/08/28 07:49:34;;;;;;;;;9.75;7.25;;;;;20.51;53.61;101588.13;2381794;28;46248;-84
2022/08/28 07:50:44;;;;;;;;;8.00;6.25;;;;;20.52;53.47;101584.50;2375460;28;45229;-85
2022/08/28 07:51:54;;;;;;;;;8.75;8.75;;;;;20.54;53.80;101583.47;2372812;28;47224;-84
2022/08/28 07:53:05;;;;;;;;;8.50;8.00;;;;;20.57;53.72;101593.94;2377563;28;45351;-83
2022/08/28 07:54:16;;;;;;;;;8.75;8.75;;;;;20.60;53.96;101590.22;2385052;28;46288;-84
2022/08/28 07:55:28;;;;;;;;;11.75;9.50;;;;;20.61;53.40;101588.41;2374939;28;45365;-84
2022/08/28 07:56:41;;;;;;;;;9.25;9.00;;;;;20.65;53.52;101595.25;2378324;28;46050;-84
2022/08/28 07:57:52;;;;;;;;;13.75;10.75;;;;;20.65;53.30;101596.13;2394416;28;45170;-84
2022/08/28 07:59:02;;;;;;;;;7.25;7.25;;;;;20.67;53.58;101585.34;2386151;28;46300;-85
2022/08/28 08:00:13;;;;;;;;;13.00;9.75;;;;;20.69;53.45;101591.47;2384329;28;44707;-84
2022/08/28 08:01:25;;;;;;;;;8.25;8.00;;;;;20.73;53.50;101589.44;2374988;28;47474;-85
2022/08/28 08:02:35;;;;;;;;;10.00;8.00;;;;;20.78;53.66;101598.03;2374986;28;45393;-85
2022/08/28 08:03:46;;;;;;;;;10.75;7.75;;;;;20.82;53.39;101590.69;2383462;28;45368;-85
2022/08/28 08:04:56;;;;;;;;;11.50;9.50;;;;;20.86;53.23;101589.53;2385364;28;44853;-84
2022/08/28 08:06:06;;;;;;;;;12.75;10.25;;;;;20.89;53.19;101589.34;2378036;28;47986;-84
2022/08/28 08:07:18;;;;;;;;;8.50;8.00;;;;;20.89;53.11;101592.03;2380295;28;45351;-83
2022/08/28 08:08:31;;;;;;;;;9.00;8.50;;;;;20.88;53.28;101583.16;2384350;28;46096;-83
2022/08/28 08:09:42;;;;;;;;;12.75;9.00;;;;;20.91;53.23;101596.28;2384914;28;45180;-84
2022/08/28 08:11:03;;;;;;;;;12.50;9.25;;;;;20.92;52.85;101581.13;2384655;28;45393;-83
2022/08/28 08:12:14;;;;;;;;;8.25;7.25;;;;;20.92;53.07;101597.16;2394392;28;44653;-82
2022/08/28 08:13:24;;;;;;;;;11.50;9.50;;;;;20.94;53.26;101586.38;2385490;28;45292;-83
2022/08/28 08:14:36;;;;;;;;;9.00;9.00;;;;;20.96;53.33;101589.81;2374823;28;45168;-84
2022/08/28 08:15:46;;;;;;;;;9.00;8.50;;;;;21.00;53.12;101588.66;2377461;28;47145;-84
2022/08/28 08:17:00;;;;;;;;;8.75;7.50;;;;;21.03;53.04;101588.50;2388005;28;45444;-84
2022/08/28 08:18:10;;;;;;;;;8.00;8.00;;;;;21.07;52.95;101595.34;2393585;28;45478;-84
2022/08/28 08:19:21;;;;;;;;;9.25;8.75;;;;;21.10;53.18;101591.63;2384899;28;44598;-83
2022/08/28 08:20:31;;;;;;;;;5.25;5.25;;;;;21.15;52.61;101597.53;2384707;28;45367;-84
2022/08/28 08:21:47;;;;;;;;;10.00;9.00;;;;;21.20;52.61;101594.56;2385017;28;44595;-83
2022/08/28 08:22:57;;;;;;;;;5.00;5.00;;;;;21.23;52.96;101597.03;2384507;28;45558;-84
2022/08/28 08:24:07;;;;;;;;;10.25;9.75;;;;;21.26;52.40;101602.16;2384601;28;45215;-84
2022/08/28 08:25:18;;;;;;;;;12.25;10.25;;;;;21.29;52.35;101601.97;2384656;28;46228;-83
2022/08/28 08:26:28;;;;;;;;;11.00;7.75;;;;;21.30;52.69;101589.47;2384475;28;45476;-84
2022/08/28 08:27:39;;;;;;;;;10.50;8.75;;;;;21.32;52.32;101599.09;2384891;28;45303;-83
2022/08/28 08:28:50;;;;;;;;;11.00;7.25;;;;;21.33;52.06;101592.81;2384637;28;44870;-84
2022/08/28 08:30:02;;;;;;;;;10.00;8.75;;;;;21.33;51.96;101600.81;2384584;28;45263;-84
2022/08/28 08:31:19;;;;;;;;;10.25;9.00;;;;;21.33;51.99;101598.16;2385147;28;45231;-83
2022/08/28 08:32:30;;;;;;;;;10.25;9.75;;;;;21.32;52.58;101601.78;2384595;28;45246;-87
2022/08/28 08:33:43;;;;;;;;;11.50;10.25;;;;;21.32;52.37;101603.59;2384843;28;45219;-84
2022/08/28 08:34:54;;;;;;;;;10.50;9.75;;;;;21.33;52.45;101594.63;2384220;28;46581;-86
2022/08/28 08:36:06;;;;;;;;;13.25;11.00;;;;;21.32;52.52;101601.78;2372058;28;45871;-82
2022/08/28 08:37:16;;;;;;;;;11.75;9.50;;;;;21.31;52.04;101607.22;2376716;28;45866;-82
2022/08/28 08:38:31;;;;;;;;;10.75;10.25;;;;;21.33;52.37;101606.19;2384946;28;44972;-84
2022/08/28 08:39:42;;;;;;;;;11.50;11.50;;;;;21.34;52.23;101612.34;2383856;28;45483;-84
2022/08/28 08:40:52;;;;;;;;;10.25;9.50;;;;;21.33;52.53;101600.81;2374493;28;45307;-83
2022/08/28 08:42:09;;;;;;;;;16.00;11.00;;;;;21.35;52.58;101609.59;2376955;28;46997;-83
2022/08/28 08:43:20;;;;;;;;;14.25;11.25;;;;;21.37;52.09;101606.81;2392256;28;44826;-84
2022/08/28 08:44:37;;;;;;;;;11.75;10.00;;;;;21.38;52.79;101605.00;2376998;28;48091;-85
2022/08/28 08:45:48;;;;;;;;;9.00;8.00;;;;;21.40;52.02;101600.41;2378147;28;45653;-90
2022/08/28 08:47:18;;;;;;;;;10.00;9.00;;;;;21.42;52.52;101599.34;2377181;28;47192;-91
2022/08/28 08:48:34;;;;;;;;;15.00;11.00;;;;;21.46;52.29;101600.84;2387142;28;45356;-86
2022/08/28 08:49:47;;;;;;;;;12.50;12.50;;;;;21.50;52.47;101606.00;2383053;28;45618;-88
2022/08/28 08:51:02;;;;;;;;;11.00;10.00;;;;;21.52;51.80;101604.94;2396405;28;45378;-85
2022/08/28 08:52:22;;;;;;;;;14.50;11.00;;;;;21.53;52.16;101598.63;2391312;28;47260;-82
2022/08/28 08:53:45;;;;;;;;;11.50;10.75;;;;;21.57;52.16;101607.31;2388110;28;45246;-85
2022/08/28 08:55:05;;;;;;;;;11.25;10.75;;;;;21.61;51.99;101592.75;2377015;28;46462;-89
2022/08/28 08:56:20;;;;;;;;;12.75;10.50;;;;;21.62;52.07;101594.50;2383572;28;44834;-86
2022/08/28 08:57:32;;;;;;;;;12.00;11.25;;;;;21.64;51.76;101591.72;2370545;28;47536;-89
2022/08/28 08:58:48;;;;;;;;;14.50;13.50;;;;;21.66;52.07;101603.16;2374261;28;45275;-88
2022/08/28 09:00:01;;;;;;;;;11.50;7.50;;;;;21.65;51.76;101593.44;2383426;28;45416;-85
2022/08/28 09:01:32;;;;;;;;;13.75;12.00;;;;;21.66;51.88;101587.97;2373658;28;45276;-83
2022/08/28 09:02:53;;;;;;;;;10.50;8.50;;;;;21.70;51.86;101591.31;2379436;28;45508;-84
2022/08/28 09:04:24;;;;;;;;;14.75;10.75;;;;;21.74;52.08;101592.81;2384092;28;45255;-83
2022/08/28 09:05:51;;;;;;;;;13.75;10.25;;;;;21.80;51.84;101586.19;2383717;28;45358;-86
2022/08/28 09:07:15;;;;;;;;;15.25;12.00;;;;;21.81;51.22;101588.75;2383968;28;44783;-86
2022/08/28 09:08:46;;;;;;;;;11.50;10.75;;;;;21.86;51.32;101591.16;2383780;28;45456;-86
2022/08/28 09:09:57;;;;;;;;;11.50;11.50;;;;;21.89;51.57;101600.78;2381158;28;44677;-86
2022/08/28 09:11:16;;;;;;;;;12.75;12.00;;;;;21.90;51.69;101598.00;2382191;28;46740;-86
2022/08/28 09:12:38;;;;;;;;;10.00;9.75;;;;;21.93;51.46;101591.59;2384592;28;45417;-86
2022/08/28 09:14:01;;;;;;;;;11.50;9.75;;;;;21.96;51.21;101595.88;2384512;28;46401;-85
2022/08/28 09:15:16;;;;;;;;;10.75;9.75;;;;;21.99;51.49;101596.53;2384284;28;45231;-86
2022/08/28 09:16:35;;;;;;;;;14.00;11.75;;;;;22.02;51.13;101590.13;2374202;28;48194;-92
2022/08/28 09:17:53;;;;;;;;;15.00;12.00;;;;;22.02;51.20;101590.97;2375159;28;45421;-86
2022/08/28 09:19:08;;;;;;;;;13.00;11.25;;;;;22.05;51.14;101589.88;2374106;28;47282;-86
2022/08/28 09:20:23;;;;;;;;;10.50;10.50;;;;;22.05;51.00;101583.69;2385172;28;45331;-87
2022/08/28 09:21:38;;;;;;;;;14.25;11.00;;;;;22.07;50.92;101592.47;2379463;28;47245;-85
2022/08/28 09:22:49;;;;;;;;;14.00;13.25;;;;;22.10;51.16;101589.59;2386005;28;45390;-85
2022/08/28 09:24:03;;;;;;;;;5.00;5.00;;;;;22.12;50.87;101590.34;2387565;28;46551;-85
2022/08/28 09:25:48;;;;;;;;;11.75;10.75;;;;;22.15;51.01;101588.28;2375157;28;45393;-90
2022/08/28 09:27:01;;;;;;;;;10.50;10.25;;;;;22.18;51.25;101583.69;2392741;28;47168;-85
2022/08/28 09:28:17;;;;;;;;;8.50;8.00;;;;;22.22;50.87;101583.38;2390112;28;45250;-86
2022/08/28 09:29:35;;;;;;;;;8.50;6.75;;;;;22.25;51.00;101588.50;2389429;28;45471;-85
2022/08/28 09:30:59;;;;;;;;;8.50;7.25;;;;;22.31;50.59;101578.34;2376056;28;44703;-85
2022/08/28 09:32:30;;;;;;;;;16.25;11.00;;;;;22.40;51.13;101584.88;2374964;28;46277;-85
2022/08/28 09:33:44;;;;;;;;;14.00;13.00;;;;;22.43;50.48;101585.50;2375667;28;45312;-85
2022/08/28 09:35:08;;;;;;;;;7.25;6.75;;;;;22.47;50.34;101584.31;2381108;28;45509;-86
2022/08/28 09:36:34;;;;;;;;;11.00;10.00;;;;;22.54;51.02;101584.75;2375136;28;44672;-85
2022/08/28 09:37:44;;;;;;;;;13.75;11.50;;;;;22.59;50.83;101585.25;2384009;28;47270;-85
2022/08/28 09:39:09;;;;;;;;;9.25;9.00;;;;;22.65;50.75;101591.16;2392894;28;45417;-85
2022/08/28 09:43:45;;;;;;;;;14.25;12.25;;;;;22.75;50.41;101580.66;2377665;28;45279;-85
2022/08/28 09:45:22;;;;;;;;;11.75;10.25;;;;;22.79;50.29;101576.81;2383509;28;45342;-85
2022/08/28 09:46:33;;;;;;;;;9.50;9.25;;;;;22.79;50.27;101568.78;2370869;28;46346;-86
2022/08/28 09:47:49;;;;;;;;;9.75;8.25;;;;;22.84;50.27;101577.31;2374495;28;45332;-85
2022/08/28 09:49:09;;;;;;;;;9.50;8.25;;;;;22.89;50.04;101577.00;2382792;28;47165;-86
2022/08/28 09:50:22;;;;;;;;;12.25;11.75;;;;;22.91;50.34;101575.91;2379814;28;44763;-84
2022/08/28 09:51:37;;;;;;;;;18.25;15.50;;;;;22.90;49.91;101576.88;2374733;28;46790;-85
2022/08/28 09:52:48;;;;;;;;;10.00;8.75;;;;;22.90;49.58;101574.19;2375505;28;45243;-86
2022/08/28 09:54:06;;;;;;;;;14.25;12.00;;;;;22.93;49.31;101570.44;2383342;28;48321;-86
2022/08/28 09:55:26;;;;;;;;;11.00;9.25;;;;;22.96;49.78;101572.91;2375522;28;44735;-84
2022/08/28 09:56:39;;;;;;;;;7.25;7.25;;;;;23.02;49.57;101576.94;2374961;28;46357;-87
2022/08/28 09:57:51;;;;;;;;;6.75;6.00;;;;;23.04;49.43;101566.97;2374054;28;45226;-86
2022/08/28 09:59:07;;;;;;;;;7.00;7.00;;;;;23.11;49.55;101570.06;2367548;28;47023;-87
2022/08/28 10:00:17;;;;;;;;;9.00;7.75;;;;;23.14;49.01;101569.81;2374404;28;45205;-86
2022/08/28 10:01:42;;;;;;;;;12.25;8.00;;;;;23.21;49.54;101578.28;2374945;28;45513;-86
2022/08/28 10:03:00;;;;;;;;;7.75;7.25;;;;;23.24;49.58;101573.53;2383341;28;45218;-87
2022/08/28 10:04:52;;;;;;;;;14.75;12.25;;;;;23.28;49.33;101571.50;2379981;28;45323;-85
2022/08/28 10:06:28;;;;;;;;;9.00;8.00;;;;;23.30;49.05;101568.69;2386101;28;45509;-86
2022/08/28 10:07:49;;;;;;;;;8.25;8.00;;;;;23.31;48.93;101568.56;2381631;28;45551;-87
2022/08/28 10:09:51;;;;;;;;;9.00;8.25;;;;;23.37;48.96;101564.56;2375113;28;45219;-86
2022/08/28 10:11:18;;;;;;;;;12.75;10.25;;;;;23.40;49.00;101563.50;2373811;28;47219;-85
2022/08/28 10:12:42;;;;;;;;;11.75;10.75;;;;;23.45;48.73;101564.00;2374455;28;45391;-86
2022/08/28 10:14:17;;;;;;;;;13.00;13.00;;;;;23.47;48.81;101565.59;2374676;28;46537;-86
2022/08/28 10:15:28;;;;;;;;;14.25;12.00;;;;;23.51;48.87;101566.22;2374997;28;45413;-87
2022/08/28 10:17:11;;;;;;;;;14.00;14.00;;;;;23.54;48.39;101566.00;2383168;28;47257;-87
2022/08/28 10:18:30;;;;;;;;;15.00;13.25;;;;;23.52;48.21;101565.28;2367337;28;45347;-85
2022/08/28 10:19:53;;;;;;;;;11.75;9.75;;;;;23.54;48.28;101570.50;2379783;28;46466;-87
2022/08/28 10:21:34;;;;;;;;;13.00;10.50;;;;;23.56;48.28;101568.56;2374915;28;45230;-89
2022/08/28 10:23:03;;;;;;;;;13.25;12.50;;;;;23.58;48.43;101567.47;2391806;28;47162;-90
2022/08/28 10:24:23;;;;;;;;;12.25;12.25;;;;;23.58;48.58;101562.13;2387517;28;44812;-88
2022/08/28 10:25:55;;;;;;;;;8.75;8.75;;;;;23.63;48.34;101566.28;2390475;28;48463;-88
2022/08/28 10:27:43;;;;;;;;;14.75;12.50;;;;;23.65;48.27;101567.03;2378448;28;44704;-89
2022/08/28 10:29:18;;;;;;;;;9.25;9.25;;;;;23.64;48.18;101568.00;2374645;28;45442;-90
2022/08/28 10:30:34;;;;;;;;;13.50;9.50;;;;;23.65;48.51;101573.25;2392491;28;44662;-90
2022/08/28 10:32:01;;;;;;;;;10.00;9.00;;;;;23.68;48.26;101569.50;2393710;28;48243;-89
2022/08/28 10:33:30;;;;;;;;;11.75;9.50;;;;;23.72;47.95;101568.28;2397387;28;45326;-91
2022/08/28 10:34:54;;;;;;;;;7.75;6.00;;;;;23.75;47.99;101561.81;2387422;28;47089;-90
2022/08/28 10:36:29;;;;;;;;;10.50;10.00;;;;;23.78;47.96;101565.09;2383404;28;44792;-88
2022/08/28 10:37:58;;;;;;;;;9.75;9.00;;;;;23.81;48.02;101559.50;2381533;28;45586;-89
2022/08/28 10:39:49;;;;;;;;;7.25;5.25;;;;;23.86;47.75;101560.97;2383263;28;45329;-90
2022/08/28 10:41:07;;;;;;;;;8.75;8.00;;;;;23.90;47.81;101565.16;2348364;29;47039;-87
2022/08/28 10:42:27;;;;;;;;;10.50;10.00;;;;;23.93;47.58;101559.53;2354390;29;46316;-90
2022/08/28 10:43:44;;;;;;;;;7.75;7.75;;;;;23.94;47.41;101563.94;2353112;29;47409;-93
2022/08/28 10:45:04;;;;;;;;;10.00;8.50;;;;;23.96;47.61;101563.78;2364876;28;45462;-90
2022/08/28 10:46:28;;;;;;;;;13.00;10.50;;;;;24.01;47.37;101567.84;2358407;28;47391;-89
2022/08/28 10:47:44;;;;;;;;;8.75;8.25;;;;;24.02;47.19;101561.50;2373198;28;45464;-91
2022/08/28 10:49:05;;;;;;;;;9.75;8.00;;;;;24.03;47.20;101565.88;2374188;28;48381;-92
2022/08/28 10:50:24;;;;;;;;;10.75;8.00;;;;;24.07;47.85;101560.28;2377363;28;45517;-92
2022/08/28 10:51:43;;;;;;;;;12.00;8.75;;;;;24.08;47.54;101562.84;2391528;28;48420;-89
2022/08/28 10:53:02;;;;;;;;;11.00;10.00;;;;;24.11;47.52;101564.44;2380135;28;44780;-89
2022/08/28 10:54:33;;;;;;;;;10.25;10.25;;;;;24.14;47.14;101557.00;2377327;28;45468;-91
2022/08/28 10:55:56;;;;;;;;;8.25;7.25;;;;;24.15;47.16;101553.34;2380705;28;45297;-91
2022/08/28 10:57:12;;;;;;;;;8.00;8.00;;;;;24.19;47.18;101562.00;2380071;28;46486;-91
2022/08/28 10:58:25;;;;;;;;;14.50;10.25;;;;;24.22;46.96;101550.19;2377377;28;45294;-91
2022/08/28 10:59:38;;;;;;;;;12.00;9.00;;;;;24.25;47.08;101552.59;2384002;28;47023;-90
2022/08/28 11:00:52;;;;;;;;;8.00;8.00;;;;;24.29;46.72;101559.50;2368729;28;45359;-91
2022/08/28 11:02:05;;;;;;;;;12.25;9.50;;;;;24.33;46.94;101560.09;2386293;28;48411;-91
2022/08/28 11:03:21;;;;;;;;;12.75;11.25;;;;;24.34;46.46;101562.66;2383663;28;45277;-90
2022/08/28 11:04:31;;;;;;;;;7.50;7.50;;;;;24.35;46.87;101564.38;2382118;28;47105;-90
2022/08/28 11:06:10;;;;;;;;;8.50;7.75;;;;;24.37;46.48;101561.56;2384666;28;45231;-91
2022/08/28 11:07:30;;;;;;;;;7.50;7.50;;;;;24.41;46.59;101559.47;2393555;28;48259;-91
2022/08/28 11:08:48;;;;;;;;;10.00;10.00;;;;;24.43;46.70;101557.53;2385898;28;45250;-93
2022/08/28 11:10:31;;;;;;;;;9.25;7.25;;;;;24.48;47.05;101560.69;2384139;28;47208;-92
2022/08/28 11:11:47;;;;;;;;;9.00;8.25;;;;;24.52;46.69;101550.56;2387052;28;45270;-92
2022/08/28 11:12:59;;;;;;;;;8.00;8.00;;;;;24.55;46.44;101551.16;2392363;28;47549;-91
2022/08/28 11:14:43;;;;;;;;;8.00;8.00;;;;;24.58;46.38;101545.56;2384497;28;45376;-91
2022/08/28 11:15:53;;;;;;;;;8.75;8.00;;;;;24.61;46.39;101544.44;2368422;28;47630;-91
2022/08/28 11:17:29;;;;;;;;;8.50;8.50;;;;;24.62;46.10;101556.88;2384249;28;45256;-91
2022/08/28 11:18:55;;;;;;;;;12.75;10.00;;;;;24.63;46.17;101552.38;2374166;28;47035;-91
2022/08/28 11:20:21;;;;;;;;;8.00;8.00;;;;;24.68;46.72;101550.19;2388947;28;45886;-91
2022/08/28 11:21:41;;;;;;;;;12.50;11.25;;;;;24.70;46.16;101543.69;2379822;28;47226;-92
2022/08/28 11:23:05;;;;;;;;;11.75;10.75;;;;;24.76;46.09;101553.09;2378311;28;44632;-92
2022/08/28 11:24:39;;;;;;;;;11.25;7.50;;;;;24.77;46.08;101552.09;2388912;28;45423;-91
2022/08/28 11:25:54;;;;;;;;;11.75;10.00;;;;;24.79;45.69;101549.31;2385690;28;45417;-92
2022/08/28 11:27:20;;;;;;;;;7.75;7.75;;;;;24.82;45.81;101549.03;2384686;28;46131;-92
2022/08/28 11:28:33;;;;;;;;;9.50;7.75;;;;;24.85;45.93;101543.44;2383983;28;45808;-93
2022/08/28 11:30:08;;;;;;;;;7.00;7.00;;;;;24.90;45.86;101546.59;2392543;28;47154;-92
2022/08/28 11:31:18;;;;;;;;;9.00;8.00;;;;;24.91;45.54;101548.31;2386555;28;44810;-94
2022/08/28 11:32:50;;;;;;;;;8.75;8.50;;;;;24.93;45.52;101540.97;2383860;28;47991;-92
2022/08/28 11:34:01;;;;;;;;;10.50;8.75;;;;;24.97;45.46;101546.06;2384914;28;45196;-92
2022/08/28 11:35:42;;;;;;;;;11.00;10.25;;;;;25.00;45.69;101548.56;2374708;28;47070;-94
2022/08/28 11:36:58;;;;;;;;;12.25;8.25;;;;;25.04;44.80;101558.06;2379122;28;45441;-91
2022/08/28 11:38:09;;;;;;;;;8.75;8.25;;;;;25.07;45.57;101555.13;2393039;28;47355;-91
2022/08/28 11:39:20;;;;;;;;;8.00;7.25;;;;;25.07;44.79;101547.06;2381894;28;45432;-92
2022/08/28 11:40:30;;;;;;;;;12.75;10.00;;;;;25.10;44.89;101546.81;2378075;28;47339;-89
2022/08/28 11:42:33;;;;;;;;;9.00;9.00;;;;;25.11;44.87;101548.53;2384063;28;44716;-90
2022/08/28 11:43:45;;;;;;;;;9.00;9.00;;;;;25.07;44.58;101541.69;2365661;28;47617;-91
2022/08/28 11:44:55;;;;;;;;;9.50;9.25;;;;;25.10;44.83;101545.94;2382583;28;44718;-91
2022/08/28 11:46:22;;;;;;;;;10.25;9.00;;;;;25.10;44.87;101541.44;2376411;28;47983;-91
2022/08/28 11:47:42;;;;;;;;;7.75;7.75;;;;;25.11;44.46;101548.53;2375012;28;45261;-91
2022/08/28 11:48:55;;;;;;;;;8.25;8.25;;;;;25.12;44.76;101538.59;2375079;28;47251;-90
2022/08/28 11:50:27;;;;;;;;;12.25;8.00;;;;;25.15;45.26;101549.97;2387004;28;44680;-92
2022/08/28 11:52:03;;;;;;;;;8.25;8.25;;;;;25.21;44.55;101551.28;2376385;28;47110;-90
2022/08/28 11:53:20;;;;;;;;;7.75;7.75;;;;;25.23;44.62;101545.78;2386981;28;45267;-90
2022/08/28 11:54:32;;;;;;;;;7.50;6.50;;;;;25.25;45.02;101550.06;2388350;28;47331;-91
2022/08/28 11:56:01;;;;;;;;;6.00;6.00;;;;;25.28;44.52;101548.97;2384312;28;45501;-90
2022/08/28 11:57:24;;;;;;;;;6.75;6.75;;;;;25.32;44.84;101553.09;2374491;28;47243;-90
2022/08/28 11:58:50;;;;;;;;;7.50;6.75;;;;;25.34;44.47;101553.81;2379765;28;45493;-91
2022/08/28 12:00:06;;;;;;;;;6.50;6.50;;;;;25.40;44.14;101553.31;2385217;28;48196;-92
2022/08/28 12:01:29;;;;;;;;;7.25;5.50;;;;;25.45;44.77;101554.75;2388869;28;45524;-91
2022/08/28 12:02:40;;;;;;;;;6.50;6.00;;;;;25.48;44.77;101551.81;2392955;28;47283;-90
2022/08/28 12:03:57;;;;;;;;;8.00;7.25;;;;;25.51;44.40;101544.31;2384763;28;44716;-91
2022/08/28 12:05:13;;;;;;;;;7.75;7.25;;;;;25.54;44.07;101553.09;2384036;28;47526;-90
2022/08/28 12:06:49;;;;;;;;;7.25;6.75;;;;;25.56;43.69;101552.00;2393022;28;45311;-91
2022/08/28 12:08:01;;;;;;;;;8.00;7.25;;;;;25.53;43.64;101546.88;2360117;28;47101;-90
2022/08/28 12:09:37;;;;;;;;;5.75;5.00;;;;;25.50;43.81;101550.69;2384548;28;45247;-90
2022/08/28 12:10:53;;;;;;;;;7.50;7.50;;;;;25.49;43.00;101551.66;2372255;28;45562;-92
2022/08/28 12:12:53;;;;;;;;;8.50;8.50;;;;;25.48;43.67;101549.13;2378163;28;45257;-91
2022/08/28 12:14:25;;;;;;;;;8.00;8.00;;;;;25.49;43.63;101554.34;2378826;28;47279;-91
2022/08/28 12:15:38;;;;;;;;;7.25;7.25;;;;;25.53;44.02;101552.28;2347119;29;45410;-92
2022/08/28 12:16:58;;;;;;;;;10.50;8.00;;;;;25.56;44.00;101552.00;2384505;28;46395;-92
2022/08/28 12:18:11;;;;;;;;;7.75;6.75;;;;;25.57;43.92;101558.22;2384248;28;45327;-91
2022/08/28 12:20:03;;;;;;;;;7.00;7.00;;;;;25.57;43.67;101553.72;2384500;28;45406;-93
2022/08/28 12:21:19;;;;;;;;;8.75;7.25;;;;;25.57;43.59;101556.41;2345583;29;45306;-89
2022/08/28 12:22:51;;;;;;;;;6.75;6.25;;;;;25.57;43.94;101552.84;2384709;28;46442;-89
2022/08/28 12:24:04;;;;;;;;;8.25;6.50;;;;;25.57;43.54;101550.16;2376853;28;45286;-92
2022/08/28 12:25:27;;;;;;;;;9.00;6.75;;;;;25.57;43.99;101551.03;2368200;28;46802;-91
2022/08/28 12:26:46;;;;;;;;;9.50;8.25;;;;;25.58;43.46;101546.50;2379235;28;44703;-91
2022/08/28 12:28:02;;;;;;;;;7.00;7.00;;;;;25.59;43.85;101548.19;2383957;28;46714;-90